Time;durP1;ratioP1;P1;durP2;ratioP2;P2;SDS_P1;SDS_P2;PMS_P1;PMS_P2;Temp;Humidity;BMP_temperature;BMP_pressure;BME280_temperature;BME280_humidity;BME280_pressure;Samples;Min_cycle;Max_cycle;Signal;HPM_P1;HPM_P2
2021/01/23 00:00:45;;;;;;;15.77;9.33;;;;;;;0.97;78.98;98991.28;5089710;28;20197;-83
2021/01/23 00:03:11;;;;;;;13.10;9.27;;;;;;;0.93;78.98;98990.56;5075543;28;20292;-84
2021/01/23 00:05:37;;;;;;;12.83;9.57;;;;;;;0.92;78.95;98993.28;5085018;28;20806;-83
2021/01/23 00:08:04;;;;;;;13.50;8.80;;;;;;;0.90;78.75;98990.72;5091099;28;20228;-82
2021/01/23 00:10:31;;;;;;;13.33;10.33;;;;;;;0.88;79.23;98983.88;5090116;28;20208;-83
2021/01/23 00:12:57;;;;;;;15.70;9.53;;;;;;;0.89;79.24;98988.22;5089564;28;20213;-83
2021/01/23 00:15:23;;;;;;;13.10;8.97;;;;;;;0.88;79.35;98987.34;5093811;28;20219;-83
2021/01/23 00:17:49;;;;;;;13.10;10.13;;;;;;;0.91;79.28;98986.31;5094277;28;20228;-82
2021/01/23 00:20:16;;;;;;;14.43;9.83;;;;;;;0.92;79.40;98983.63;5094256;28;20224;-82
2021/01/23 00:22:42;;;;;;;15.83;10.03;;;;;;;0.92;79.35;98988.88;5094270;28;20234;-82
2021/01/23 00:25:08;;;;;;;13.07;9.93;;;;;;;0.93;79.42;98976.63;5094314;28;20214;-82
2021/01/23 00:27:35;;;;;;;13.30;9.70;;;;;;;0.92;79.38;98980.16;5094853;28;20216;-82
2021/01/23 00:30:01;;;;;;;12.77;9.23;;;;;;;0.94;79.52;98986.19;5094151;28;20204;-85
2021/01/23 00:32:27;;;;;;;13.10;9.37;;;;;;;0.92;79.39;98972.31;5094245;28;20788;-82
2021/01/23 00:34:53;;;;;;;14.33;9.53;;;;;;;0.91;79.66;98968.84;5088212;28;20208;-86
2021/01/23 00:37:19;;;;;;;16.90;10.50;;;;;;;0.89;79.61;98962.00;5093130;28;20228;-85
2021/01/23 00:39:45;;;;;;;16.43;10.23;;;;;;;0.90;79.80;98961.03;5086677;28;20223;-83
2021/01/23 00:42:11;;;;;;;16.83;9.50;;;;;;;0.90;79.96;98966.28;5079082;28;20283;-82
2021/01/23 00:44:38;;;;;;;12.40;9.07;;;;;;;0.92;79.99;98960.03;5075270;28;20216;-82
2021/01/23 00:47:04;;;;;;;12.73;9.53;;;;;;;0.94;79.92;98967.84;5076160;28;20589;-82
2021/01/23 00:49:30;;;;;;;11.63;9.03;;;;;;;0.95;79.92;98959.03;5074737;28;20545;-81
2021/01/23 00:51:56;;;;;;;15.20;9.57;;;;;;;0.96;80.06;98963.38;5075144;28;20205;-81
2021/01/23 00:54:22;;;;;;;11.67;8.77;;;;;;;0.95;79.80;98951.19;5074597;28;20212;-83
2021/01/23 00:56:48;;;;;;;13.73;9.03;;;;;;;0.94;80.35;98976.53;5089899;28;20238;-83
2021/01/23 00:59:15;;;;;;;16.43;9.77;;;;;;;0.92;80.30;98981.00;5094595;28;20208;-82
2021/01/23 01:01:42;;;;;;;11.90;8.63;;;;;;;0.93;80.38;98981.84;5094228;28;20269;-83
2021/01/23 01:04:08;;;;;;;14.67;10.37;;;;;;;0.93;80.37;98984.47;5095950;28;20434;-84
2021/01/23 01:06:34;;;;;;;14.27;9.07;;;;;;;0.93;79.89;98979.25;5096886;28;20619;-82
2021/01/23 01:09:00;;;;;;;14.63;9.77;;;;;;;0.93;80.38;98979.25;5096162;28;20200;-83
2021/01/23 01:11:26;;;;;;;14.60;10.47;;;;;;;0.93;80.38;98981.84;5096003;28;20200;-85
2021/01/23 01:13:52;;;;;;;14.73;10.23;;;;;;;0.91;79.97;98971.44;5095781;28;20226;-85
2021/01/23 01:16:18;;;;;;;16.97;10.57;;;;;;;0.92;80.58;98967.06;5096199;28;20212;-85
2021/01/23 01:18:45;;;;;;;13.00;9.43;;;;;;;0.91;80.43;98978.47;5095791;28;20235;-84
2021/01/23 01:21:11;;;;;;;17.37;10.83;;;;;;;0.91;80.58;98974.06;5095578;28;20204;-86
2021/01/23 01:23:38;;;;;;;15.20;10.60;;;;;;;0.92;80.65;98977.53;5095538;28;20201;-86
2021/01/23 01:26:04;;;;;;;18.40;10.30;;;;;;;0.93;80.86;98985.34;5093806;28;20208;-84
2021/01/23 01:28:30;;;;;;;18.13;10.27;;;;;;;0.94;80.82;98984.41;5094145;28;20232;-83
2021/01/23 01:30:56;;;;;;;16.43;11.00;;;;;;;0.97;80.86;98988.66;5094038;28;20237;-84
2021/01/23 01:33:22;;;;;;;18.67;10.70;;;;;;;0.96;80.58;98982.56;5093652;28;20604;-82
2021/01/23 01:35:49;;;;;;;16.43;10.47;;;;;;;0.98;80.99;98974.63;5088735;28;20197;-84
2021/01/23 01:38:15;;;;;;;17.03;9.70;;;;;;;0.98;80.90;98978.09;5088569;28;20221;-84
2021/01/23 01:40:41;;;;;;;15.40;10.27;;;;;;;0.99;81.03;98979.78;5075923;28;20219;-84
2021/01/23 01:43:07;;;;;;;14.97;10.40;;;;;;;1.02;80.96;98978.78;5082563;28;20212;-84
2021/01/23 01:45:33;;;;;;;16.50;10.07;;;;;;;1.01;81.34;98982.34;5096932;28;20622;-84
2021/01/23 01:48:00;;;;;;;14.70;10.00;;;;;;;1.01;81.25;98982.34;5097263;28;20224;-83
2021/01/23 01:50:26;;;;;;;16.13;9.53;;;;;;;1.01;81.05;98983.19;5083214;28;20255;-81
2021/01/23 01:52:53;;;;;;;14.03;10.03;;;;;;;1.04;80.78;98985.66;5077534;28;20584;-83
2021/01/23 01:55:22;;;;;;;15.03;9.80;;;;;;;1.02;80.90;98974.38;5077398;28;20216;-83
2021/01/23 01:57:51;;;;;;;14.53;10.17;;;;;;;1.03;81.24;98972.63;5077215;28;20224;-83
2021/01/23 02:00:18;;;;;;;14.17;9.43;;;;;;;1.03;81.13;98972.63;5076833;28;20225;-83
2021/01/23 02:02:55;;;;;;;15.23;9.80;;;;;;;1.04;81.14;98971.69;5076984;28;20197;-82
2021/01/23 02:05:27;;;;;;;14.17;10.20;;;;;;;1.05;80.94;98965.53;5077502;28;20192;-83
2021/01/23 02:08:05;;;;;;;21.00;11.83;;;;;;;1.06;80.85;98977.72;5078065;28;20251;-83
2021/01/23 02:10:44;;;;;;;14.07;10.63;;;;;;;1.06;81.22;98977.72;5086501;28;20200;-83
2021/01/23 02:13:21;;;;;;;15.00;10.10;;;;;;;1.07;80.91;98976.78;5089796;28;20251;-82
2021/01/23 02:15:53;;;;;;;20.43;10.33;;;;;;;1.06;81.29;98974.25;5094941;28;20196;-80
2021/01/23 02:18:22;;;;;;;14.83;11.27;;;;;;;1.06;80.89;98977.72;5096124;28;20238;-81
2021/01/23 02:21:20;;;;;;;16.20;11.07;;;;;;;1.05;81.02;98976.00;5091246;28;20204;-83
2021/01/23 02:23:48;;;;;;;17.17;11.23;;;;;;;1.04;81.14;98988.28;5087757;28;20204;-83
2021/01/23 02:26:23;;;;;;;15.90;11.03;;;;;;;1.05;81.31;98986.50;5090366;28;20201;-83
2021/01/23 02:29:06;;;;;;;13.57;10.50;;;;;;;1.03;81.24;98989.19;5093624;28;20223;-82
2021/01/23 02:31:38;;;;;;;14.80;10.33;;;;;;;1.03;81.36;98985.72;5094181;28;20204;-84
2021/01/23 02:34:07;;;;;;;13.57;10.20;;;;;;;1.00;81.26;98994.59;5097327;28;20198;-84
2021/01/23 02:36:33;;;;;;;16.23;10.97;;;;;;;0.97;80.82;98999.97;5097867;28;20207;-84
2021/01/23 02:39:02;;;;;;;16.80;10.87;;;;;;;0.93;81.05;99000.22;5097819;28;20220;-84
2021/01/23 02:41:28;;;;;;;13.13;10.57;;;;;;;0.91;80.93;98999.44;5098114;28;20621;-83
2021/01/23 02:43:54;;;;;;;14.30;11.17;;;;;;;0.90;81.13;98995.13;5098028;28;20219;-84
2021/01/23 02:46:20;;;;;;;15.77;10.40;;;;;;;0.92;81.27;99001.13;5098472;28;20214;-82
2021/01/23 02:48:49;;;;;;;15.87;10.20;;;;;;;0.92;81.22;99004.59;5101145;28;20234;-83
2021/01/23 02:51:21;;;;;;;15.27;10.50;;;;;;;0.92;81.08;99003.75;5101467;28;20207;-82
2021/01/23 02:53:50;;;;;;;18.50;11.00;;;;;;;0.92;81.51;99011.63;5102237;28;20197;-81
2021/01/23 02:56:18;;;;;;;14.40;9.27;;;;;;;0.94;81.53;98996.66;5098519;28;20210;-83
2021/01/23 02:58:47;;;;;;;17.00;9.87;;;;;;;0.95;81.29;98996.59;5097090;28;20252;-82
2021/01/23 03:01:15;;;;;;;17.27;10.77;;;;;;;0.97;81.27;99012.25;5097611;28;20568;-81
2021/01/23 03:03:44;;;;;;;17.23;10.77;;;;;;;0.98;81.18;99006.91;5087943;28;20193;-82
2021/01/23 03:06:11;;;;;;;14.40;10.27;;;;;;;0.99;81.62;99008.63;5079031;28;20212;-82
2021/01/23 03:08:43;;;;;;;14.37;10.00;;;;;;;0.99;81.33;99003.38;5096392;28;20239;-83
2021/01/23 03:11:09;;;;;;;15.27;10.00;;;;;;;1.01;81.37;99005.94;5096287;28;20192;-81
2021/01/23 03:13:35;;;;;;;17.33;10.77;;;;;;;1.00;81.72;99014.72;5095836;28;20238;-81
2021/01/23 03:16:01;;;;;;;15.73;10.03;;;;;;;1.00;81.29;99009.47;5096112;28;20279;-83
2021/01/23 03:18:27;;;;;;;18.17;10.50;;;;;;;1.00;81.64;99009.47;5095185;28;20220;-84
2021/01/23 03:20:53;;;;;;;13.03;9.77;;;;;;;1.00;81.94;99012.09;5094897;28;20200;-84
2021/01/23 03:23:20;;;;;;;13.50;9.40;;;;;;;1.00;81.84;99009.47;5094543;28;20205;-84
2021/01/23 03:25:46;;;;;;;16.83;10.40;;;;;;;1.02;81.50;99007.63;5096488;28;20210;-86
2021/01/23 03:28:12;;;;;;;14.83;9.27;;;;;;;1.03;81.73;99009.31;5095775;28;20588;-87
2021/01/23 03:30:38;;;;;;;15.10;10.43;;;;;;;1.02;81.59;98999.75;5096002;28;20214;-86
2021/01/23 03:33:05;;;;;;;15.67;10.93;;;;;;;1.05;81.62;99004.84;5096132;28;20196;-83
2021/01/23 03:35:31;;;;;;;16.63;11.03;;;;;;;1.07;81.60;99012.63;5096100;28;20654;-83
2021/01/23 03:37:57;;;;;;;18.00;10.53;;;;;;;1.09;81.74;99010.75;5096145;28;20269;-82
2021/01/23 03:40:23;;;;;;;22.47;13.53;;;;;;;1.07;81.52;99005.63;5097075;28;20255;-81
2021/01/23 03:42:49;;;;;;;19.83;12.60;;;;;;;1.07;81.53;99010.03;5095756;28;20684;-83
2021/01/23 03:45:16;;;;;;;17.17;12.03;;;;;;;1.04;81.77;99016.25;5097883;28;20200;-81
2021/01/23 03:47:42;;;;;;;17.73;12.03;;;;;;;1.04;81.62;99018.88;5095292;28;20592;-83
2021/01/23 03:50:10;;;;;;;21.63;13.63;;;;;;;1.02;81.59;99024.19;5095984;28;20560;-83
2021/01/23 03:52:36;;;;;;;21.53;13.17;;;;;;;0.99;81.56;99013.88;5092714;28;20214;-80
2021/01/23 03:55:03;;;;;;;25.30;13.50;;;;;;;0.98;81.46;99014.78;5084539;28;20738;-81
2021/01/23 03:57:30;;;;;;;24.10;13.50;;;;;;;0.98;81.72;99013.94;5083717;28;20632;-82
2021/01/23 03:59:56;;;;;;;14.80;10.97;;;;;;;0.97;81.66;99018.34;5078977;28;20910;-81
2021/01/23 04:02:22;;;;;;;18.50;11.87;;;;;;;0.94;81.71;99009.78;5082544;28;20209;-79
2021/01/23 04:04:48;;;;;;;17.47;11.10;;;;;;;0.92;81.61;99007.22;5084771;28;20226;-82
2021/01/23 04:07:14;;;;;;;16.30;11.00;;;;;;;0.91;81.79;99009.91;5094664;28;20245;-84
2021/01/23 04:09:40;;;;;;;15.03;10.67;;;;;;;0.92;81.54;99003.75;5093914;28;20234;-85
2021/01/23 04:12:07;;;;;;;14.43;10.80;;;;;;;0.92;81.88;99006.38;5093765;28;20203;-83
2021/01/23 04:14:34;;;;;;;16.50;11.60;;;;;;;0.94;82.02;99009.78;5093883;28;20655;-82
2021/01/23 04:17:00;;;;;;;15.70;10.93;;;;;;;0.93;81.59;99008.06;5093323;28;20232;-82
2021/01/23 04:19:26;;;;;;;16.90;11.90;;;;;;;0.90;81.60;99003.81;5094679;28;20242;-83
2021/01/23 04:21:52;;;;;;;18.67;11.07;;;;;;;0.90;81.63;99013.47;5094346;28;20203;-82
2021/01/23 04:24:18;;;;;;;18.90;12.03;;;;;;;0.87;81.72;99014.50;5095019;28;20207;-83
2021/01/23 04:26:44;;;;;;;14.23;10.47;;;;;;;0.88;81.78;99015.34;5094002;28;20207;-80
2021/01/23 04:29:10;;;;;;;17.00;11.43;;;;;;;0.86;81.71;99018.03;5085030;28;20197;-83
2021/01/23 04:31:37;;;;;;;16.77;11.97;;;;;;;0.87;81.81;99017.09;5092683;28;20658;-81
2021/01/23 04:34:04;;;;;;;19.70;11.80;;;;;;;0.89;81.99;99019.66;5086589;28;20249;-82
2021/01/23 04:36:31;;;;;;;19.30;11.93;;;;;;;0.90;81.97;99016.09;5091985;28;20208;-82
2021/01/23 04:38:57;;;;;;;17.50;11.03;;;;;;;0.90;82.04;99024.78;5089005;28;20228;-82
2021/01/23 04:41:23;;;;;;;18.60;12.10;;;;;;;0.91;81.41;99015.16;5091314;28;20213;-80
2021/01/23 04:43:49;;;;;;;15.80;10.93;;;;;;;0.90;81.92;99029.19;5090124;28;20200;-82
2021/01/23 04:46:18;;;;;;;18.97;11.90;;;;;;;0.87;81.64;99017.09;5087338;28;20627;-81
2021/01/23 04:48:45;;;;;;;17.93;12.17;;;;;;;0.87;81.73;99021.50;5085183;28;20685;-82
2021/01/23 04:51:11;;;;;;;21.23;12.77;;;;;;;0.85;81.88;99011.09;5090440;28;20257;-84
2021/01/23 04:53:37;;;;;;;21.80;11.83;;;;;;;0.87;81.75;99014.50;5094840;28;20208;-85
2021/01/23 04:56:04;;;;;;;16.93;11.63;;;;;;;0.87;81.96;99014.50;5095137;28;20196;-85
2021/01/23 04:58:30;;;;;;;16.20;12.23;;;;;;;0.89;82.12;99011.78;5095075;28;20231;-85
2021/01/23 05:00:56;;;;;;;16.63;11.10;;;;;;;0.89;82.11;99012.66;5090429;28;20655;-84
2021/01/23 05:03:22;;;;;;;16.63;11.33;;;;;;;0.90;81.59;99006.44;5074465;28;20205;-85
2021/01/23 05:06:04;;;;;;;21.13;13.50;;;;;;;0.90;82.05;99003.81;5074006;28;20217;-84
2021/01/23 05:08:35;;;;;;;19.43;12.37;;;;;;;0.90;81.58;99003.81;5074905;28;20588;-85
2021/01/23 05:11:02;;;;;;;16.57;10.97;;;;;;;0.89;82.34;98998.69;5074294;28;20254;-83
2021/01/23 05:13:28;;;;;;;15.67;10.83;;;;;;;0.88;82.14;98995.22;5074307;28;20580;-83
2021/01/23 05:15:54;;;;;;;16.00;11.63;;;;;;;0.88;81.92;98997.00;5074574;28;20211;-82
2021/01/23 05:18:20;;;;;;;17.40;11.87;;;;;;;0.88;81.99;98994.38;5074005;28;20229;-82
2021/01/23 05:20:47;;;;;;;19.93;12.33;;;;;;;0.88;81.90;98994.38;5077273;28;20706;-81
2021/01/23 05:23:15;;;;;;;18.50;11.83;;;;;;;0.86;82.33;98991.81;5077746;28;20651;-84
2021/01/23 05:25:43;;;;;;;15.47;10.97;;;;;;;0.87;81.88;98992.69;5077457;28;20208;-84
2021/01/23 05:28:10;;;;;;;14.93;11.20;;;;;;;0.86;81.92;98997.06;5077820;28;20225;-84
2021/01/23 05:30:50;;;;;;;16.63;11.23;;;;;;;0.86;82.24;98996.22;5077193;28;20197;-83
2021/01/23 05:33:18;;;;;;;19.37;12.17;;;;;;;0.87;82.18;99000.53;5077472;28;20593;-83
2021/01/23 05:35:54;;;;;;;16.27;11.57;;;;;;;0.88;82.01;98997.84;5077427;28;20201;-84
2021/01/23 05:38:24;;;;;;;22.23;11.60;;;;;;;0.88;81.94;98997.84;5077249;28;20574;-84
2021/01/23 05:40:53;;;;;;;16.70;10.77;;;;;;;0.88;82.02;98997.84;5076819;28;20232;-85
2021/01/23 05:43:30;;;;;;;19.67;11.87;;;;;;;0.89;82.26;99001.31;5077082;28;20209;-84
2021/01/23 05:45:56;;;;;;;20.30;12.40;;;;;;;0.88;82.01;98999.63;5076674;28;20188;-85
2021/01/23 05:48:22;;;;;;;20.80;12.50;;;;;;;0.89;82.13;98998.69;5076324;28;20222;-84
2021/01/23 05:50:50;;;;;;;18.67;11.67;;;;;;;0.89;82.21;99007.41;5094854;28;20208;-84
2021/01/23 05:53:16;;;;;;;23.33;11.87;;;;;;;0.90;82.06;99014.31;5095901;28;20211;-83
2021/01/23 05:55:43;;;;;;;19.23;12.00;;;;;;;0.90;82.00;99009.06;5097601;28;20632;-83
2021/01/23 05:58:12;;;;;;;17.77;12.03;;;;;;;0.90;82.21;99008.22;5099002;28;20232;-84
2021/01/23 06:00:39;;;;;;;19.70;12.23;;;;;;;0.88;82.61;99010.09;5098834;28;20226;-86
2021/01/23 06:03:05;;;;;;;17.60;11.50;;;;;;;0.89;82.51;99001.31;5085544;28;20196;-84
2021/01/23 06:05:32;;;;;;;19.83;12.47;;;;;;;0.90;82.29;99016.09;5079890;28;20573;-85
2021/01/23 06:07:59;;;;;;;20.90;12.07;;;;;;;0.88;82.45;99013.56;5079690;28;20317;-83
2021/01/23 06:10:44;;;;;;;18.57;11.50;;;;;;;0.88;82.49;99020.59;5078392;28;20249;-84
2021/01/23 06:13:36;;;;;;;20.40;11.67;;;;;;;0.88;82.40;99015.34;5077761;28;20193;-81
2021/01/23 06:16:03;;;;;;;18.83;11.63;;;;;;;0.87;82.56;99003.16;5077552;28;20209;-81
2021/01/23 06:18:30;;;;;;;23.67;12.40;;;;;;;0.87;82.20;99008.41;5077861;28;20232;-81
2021/01/23 06:20:57;;;;;;;19.93;12.50;;;;;;;0.88;82.73;99007.47;5076502;28;20228;-82
2021/01/23 06:23:48;;;;;;;18.87;12.37;;;;;;;0.87;82.72;99013.63;5077693;28;20205;-82
2021/01/23 06:26:14;;;;;;;16.27;10.70;;;;;;;0.86;82.44;99009.31;5077208;28;20192;-83
2021/01/23 06:28:56;;;;;;;23.40;13.70;;;;;;;0.84;82.68;99016.41;5078510;28;20254;-83
2021/01/23 06:31:31;;;;;;;18.37;11.23;;;;;;;0.82;82.86;99013.00;5078429;28;20204;-85
2021/01/23 06:33:57;;;;;;;19.27;12.43;;;;;;;0.82;82.59;99021.72;5078329;28;20285;-85
2021/01/23 06:36:23;;;;;;;21.13;12.37;;;;;;;0.80;82.77;99028.81;5078510;28;20242;-85
2021/01/23 06:39:01;;;;;;;17.80;11.53;;;;;;;0.80;82.93;99025.34;5077757;28;20225;-85
2021/01/23 06:41:28;;;;;;;19.60;11.00;;;;;;;0.76;82.90;99029.03;5078519;28;20745;-82
2021/01/23 06:44:12;;;;;;;18.70;11.83;;;;;;;0.75;82.72;99024.72;5077382;28;20209;-83
2021/01/23 06:46:40;;;;;;;20.73;11.13;;;;;;;0.73;82.79;99037.03;5077148;28;20196;-84
2021/01/23 06:49:07;;;;;;;17.47;11.37;;;;;;;0.71;83.02;99029.28;5077054;28;20201;-82
2021/01/23 06:51:34;;;;;;;23.50;13.53;;;;;;;0.69;82.93;99037.22;5077299;28;20209;-83
2021/01/23 06:54:11;;;;;;;20.97;13.17;;;;;;;0.69;82.74;99031.13;5076905;28;20806;-84
2021/01/23 06:56:42;;;;;;;22.90;14.23;;;;;;;0.72;82.86;99027.50;5076149;28;20208;-83
2021/01/23 06:59:20;;;;;;;25.27;13.93;;;;;;;0.76;83.28;99029.03;5076985;28;20410;-85
2021/01/23 07:01:46;;;;;;;24.47;15.03;;;;;;;0.79;83.11;99034.97;5076411;28;20177;-85
2021/01/23 07:04:12;;;;;;;24.50;14.50;;;;;;;0.84;83.11;99029.50;5076610;28;20216;-84
2021/01/23 07:06:38;;;;;;;21.57;13.83;;;;;;;0.86;83.39;99020.66;5077769;28;20233;-84
2021/01/23 07:09:07;;;;;;;25.77;14.67;;;;;;;0.89;83.47;99012.66;5078451;28;20224;-85
2021/01/23 07:11:33;;;;;;;24.00;14.20;;;;;;;0.94;83.47;99021.09;5086191;28;20245;-82
2021/01/23 07:14:02;;;;;;;27.07;14.47;;;;;;;0.97;83.38;99012.25;5097913;28;20200;-83
2021/01/23 07:16:30;;;;;;;23.60;13.67;;;;;;;0.99;83.46;99008.63;5099008;28;20204;-83
2021/01/23 07:18:58;;;;;;;22.17;14.27;;;;;;;1.04;83.36;99006.63;5100013;28;20209;-84
2021/01/23 07:21:25;;;;;;;29.40;14.07;;;;;;;1.07;83.72;99003.00;5099834;28;20195;-84
2021/01/23 07:23:53;;;;;;;25.07;14.47;;;;;;;1.07;83.67;99003.00;5099248;28;20200;-84
2021/01/23 07:26:20;;;;;;;28.63;15.03;;;;;;;1.11;83.33;98995.81;5099695;28;20215;-84
2021/01/23 07:28:50;;;;;;;26.53;14.23;;;;;;;1.13;83.47;98988.72;5098933;28;20251;-84
2021/01/23 07:31:24;;;;;;;25.70;15.30;;;;;;;1.15;83.54;98985.09;5088515;28;20214;-83
2021/01/23 07:33:52;;;;;;;31.53;15.40;;;;;;;1.17;83.69;98993.72;5091592;28;20703;-86
2021/01/23 07:36:32;;;;;;;26.80;13.93;;;;;;;1.20;83.75;98988.31;5104110;22;20242;-61
2021/01/23 07:38:59;;;;;;;28.80;16.30;;;;;;;1.22;83.69;98983.00;5066187;28;20306;-65
2021/01/23 07:41:28;;;;;;;35.03;15.90;;;;;;;1.25;83.75;98975.00;5062718;28;20213;-66
2021/01/23 07:43:55;;;;;;;27.73;15.23;;;;;;;1.27;83.78;98975.72;5062125;28;20205;-64
2021/01/23 07:46:21;;;;;;;28.40;14.83;;;;;;;1.27;83.66;98978.34;5065107;28;20650;-65
2021/01/23 07:48:47;;;;;;;26.13;15.73;;;;;;;1.29;83.81;98973.88;5060342;28;20206;-66
2021/01/23 07:51:25;;;;;;;24.83;14.43;;;;;;;1.30;83.29;98971.19;5068271;22;20252;-79
2021/01/23 07:54:09;;;;;;;26.30;14.77;;;;;;;1.32;83.58;98969.31;5057901;28;20178;-80
2021/01/23 07:56:35;;;;;;;29.40;15.40;;;;;;;1.32;83.48;98964.06;5047312;28;20248;-79
2021/01/23 07:59:02;;;;;;;22.60;13.23;;;;;;;1.34;84.03;98967.47;5055868;28;20209;-80
2021/01/23 08:01:28;;;;;;;31.23;14.87;;;;;;;1.34;83.20;98950.88;5055350;28;20205;-80
2021/01/23 08:03:54;;;;;;;26.73;15.53;;;;;;;1.34;83.83;98956.97;5055107;28;20671;-79
2021/01/23 08:06:22;;;;;;;27.33;14.23;;;;;;;1.35;83.31;98963.06;5055147;28;20686;-79
2021/01/23 08:08:49;;;;;;;23.57;13.60;;;;;;;1.34;83.60;98961.38;5055430;28;20204;-79
2021/01/23 08:11:38;;;;;;;22.13;14.27;;;;;;;1.34;83.76;98961.38;5047141;28;20198;-79
2021/01/23 08:14:10;;;;;;;25.87;14.10;;;;;;;1.35;83.84;98960.44;5047370;28;20206;-78
2021/01/23 08:16:49;;;;;;;25.47;14.43;;;;;;;1.36;83.29;98967.41;5055647;28;20225;-78
2021/01/23 08:19:15;;;;;;;24.97;14.90;;;;;;;1.38;83.86;98970.78;5055730;28;20213;-79
2021/01/23 08:21:42;;;;;;;28.00;15.73;;;;;;;1.37;83.64;98962.06;5055394;28;20216;-79
2021/01/23 08:24:28;;;;;;;26.80;15.77;;;;;;;1.39;83.95;98965.47;5051257;28;20206;-79
2021/01/23 08:26:59;;;;;;;29.87;16.40;;;;;;;1.42;83.75;98968.84;5042658;28;20221;-79
2021/01/23 08:29:25;;;;;;;25.47;15.23;;;;;;;1.43;83.83;98968.78;5055148;28;20235;-79
2021/01/23 08:32:00;;;;;;;25.73;14.73;;;;;;;1.44;83.49;98964.34;5056090;28;20590;-79
2021/01/23 08:34:26;;;;;;;29.70;15.73;;;;;;;1.46;83.85;98971.22;5054712;28;20189;-79
2021/01/23 08:36:53;;;;;;;32.80;17.47;;;;;;;1.49;83.71;98962.34;5054901;28;20226;-78
2021/01/23 08:39:19;;;;;;;29.97;19.10;;;;;;;1.52;83.88;98967.44;5054631;28;20224;-78
2021/01/23 08:41:45;;;;;;;30.10;16.50;;;;;;;1.53;83.81;98964.72;5055471;28;20201;-79
2021/01/23 08:44:11;;;;;;;27.17;15.97;;;;;;;1.57;83.50;98965.41;5055286;28;20229;-81
2021/01/23 08:46:37;;;;;;;28.80;17.27;;;;;;;1.60;83.85;98962.63;5054991;28;20279;-81
2021/01/23 08:49:03;;;;;;;30.47;16.67;;;;;;;1.63;83.84;98967.69;5056269;28;20237;-80
2021/01/23 08:51:30;;;;;;;25.37;14.73;;;;;;;1.66;83.45;98967.53;5056362;28;20206;-81
2021/01/23 08:53:57;;;;;;;27.93;15.13;;;;;;;1.70;83.43;98969.06;5058734;28;20205;-81
2021/01/23 08:56:23;;;;;;;21.23;13.67;;;;;;;1.74;84.04;98960.94;5059739;28;20645;-79
2021/01/23 08:58:49;;;;;;;26.33;14.53;;;;;;;1.79;83.74;98959.88;5058608;28;20294;-80
2021/01/23 09:01:15;;;;;;;24.10;14.43;;;;;;;1.82;83.78;98957.88;5059081;28;20317;-81
2021/01/23 09:03:41;;;;;;;23.77;14.90;;;;;;;1.86;83.96;98966.44;5060313;28;20221;-81
2021/01/23 09:06:07;;;;;;;24.43;15.00;;;;;;;1.88;83.35;98975.94;5060073;28;20237;-81
2021/01/23 09:08:33;;;;;;;25.37;14.47;;;;;;;1.91;83.85;98973.16;5060534;28;20213;-80
2021/01/23 09:11:00;;;;;;;27.43;14.67;;;;;;;1.94;83.81;98973.00;5060799;28;20567;-80
2021/01/23 09:13:26;;;;;;;21.30;14.20;;;;;;;1.99;83.61;98978.81;5060773;28;20202;-81
2021/01/23 09:15:52;;;;;;;33.27;15.77;;;;;;;2.02;83.80;98978.66;5060015;28;20224;-80
2021/01/23 09:18:18;;;;;;;23.37;14.23;;;;;;;2.07;83.73;98970.53;5045033;28;20577;-80
2021/01/23 09:20:44;;;;;;;19.03;12.57;;;;;;;2.13;83.48;98979.84;5060081;28;20229;-80
2021/01/23 09:23:10;;;;;;;23.63;13.93;;;;;;;2.17;83.00;98983.97;5060182;28;20205;-80
2021/01/23 09:25:36;;;;;;;19.23;13.07;;;;;;;2.21;83.07;98990.75;5059322;28;20205;-80
2021/01/23 09:28:04;;;;;;;21.63;12.40;;;;;;;2.24;82.82;98990.59;5045502;28;20695;-80
2021/01/23 09:30:30;;;;;;;15.47;10.50;;;;;;;2.29;83.18;98991.19;5058555;28;20255;-80
2021/01/23 09:32:56;;;;;;;17.33;10.67;;;;;;;2.33;82.51;98990.09;5056927;28;20201;-81
2021/01/23 09:35:22;;;;;;;18.10;10.70;;;;;;;2.39;82.95;98981.84;5055271;28;20210;-80
2021/01/23 09:37:48;;;;;;;22.23;10.37;;;;;;;2.44;82.73;98988.56;5057682;28;20240;-80
2021/01/23 09:40:15;;;;;;;18.03;9.93;;;;;;;2.50;82.96;98984.75;5053351;28;20692;-79
2021/01/23 09:42:41;;;;;;;17.23;10.67;;;;;;;2.56;82.16;98981.75;5054395;28;20211;-81
2021/01/23 09:45:09;;;;;;;17.77;10.90;;;;;;;2.62;82.35;98984.03;5056050;28;20197;-81
2021/01/23 09:47:35;;;;;;;17.30;10.43;;;;;;;2.68;82.17;98986.31;5053709;28;20306;-80
2021/01/23 09:50:02;;;;;;;20.67;12.27;;;;;;;2.73;81.62;98988.66;5064032;28;20198;-80
2021/01/23 09:52:28;;;;;;;17.97;11.03;;;;;;;2.77;81.23;98980.50;5057923;28;20206;-80
2021/01/23 09:54:54;;;;;;;20.60;12.57;;;;;;;2.82;81.20;98976.78;5057393;28;20205;-80
2021/01/23 09:57:20;;;;;;;20.23;12.27;;;;;;;2.88;81.62;98968.50;5057372;28;20244;-81
2021/01/23 09:59:46;;;;;;;13.97;9.53;;;;;;;2.92;81.32;98968.25;5057953;28;20231;-80
2021/01/23 10:02:13;;;;;;;14.97;10.07;;;;;;;2.96;81.17;98953.97;5055610;28;20227;-81
2021/01/23 10:04:39;;;;;;;15.90;9.40;;;;;;;3.01;80.57;98954.56;5057058;28;20228;-80
2021/01/23 10:07:05;;;;;;;13.10;8.43;;;;;;;3.06;79.82;98963.00;5056077;28;20321;-80
2021/01/23 10:09:31;;;;;;;15.33;9.30;;;;;;;3.12;80.57;98956.53;5052908;28;20210;-81
2021/01/23 10:11:57;;;;;;;12.93;8.77;;;;;;;3.17;79.79;98965.00;5049095;28;20758;-80
2021/01/23 10:14:23;;;;;;;12.23;7.73;;;;;;;3.23;79.38;98955.88;5046029;28;20802;-80
2021/01/23 10:16:50;;;;;;;10.57;7.73;;;;;;;3.31;78.53;98959.75;5054437;28;20228;-80
2021/01/23 10:19:17;;;;;;;9.80;7.23;;;;;;;3.35;78.44;98955.16;5046896;28;20206;-80
2021/01/23 10:21:43;;;;;;;12.37;8.20;;;;;;;3.40;78.48;98948.66;5046739;28;20640;-80
2021/01/23 10:24:10;;;;;;;16.47;7.53;;;;;;;3.47;77.64;98955.25;5050925;28;20206;-80
2021/01/23 10:26:36;;;;;;;11.00;6.93;;;;;;;3.54;77.73;98949.63;5053477;28;20312;-80
2021/01/23 10:29:02;;;;;;;12.37;6.93;;;;;;;3.61;77.58;98958.81;5054542;28;20211;-80
2021/01/23 10:31:28;;;;;;;11.53;7.10;;;;;;;3.68;76.59;98952.25;5041794;28;20221;-81
2021/01/23 10:33:54;;;;;;;10.63;7.33;;;;;;;3.74;76.98;98946.59;5056680;28;20206;-80
2021/01/23 10:36:21;;;;;;;9.93;7.27;;;;;;;3.79;75.54;98950.63;5056541;28;20229;-80
2021/01/23 10:38:48;;;;;;;12.83;7.03;;;;;;;3.83;75.30;98940.75;5051955;28;20206;-79
2021/01/23 10:41:14;;;;;;;11.27;7.80;;;;;;;3.90;75.41;98935.94;5053817;28;20226;-80
2021/01/23 10:43:40;;;;;;;12.03;6.63;;;;;;;3.95;74.63;98936.47;5053863;28;20274;-80
2021/01/23 10:46:06;;;;;;;11.20;7.60;;;;;;;4.00;74.65;98929.97;5047053;28;20255;-79
2021/01/23 10:48:32;;;;;;;9.70;6.10;;;;;;;4.07;74.30;98930.44;5049725;28;20760;-80
2021/01/23 10:50:58;;;;;;;8.43;6.00;;;;;;;4.12;73.37;98925.75;5046243;28;20845;-79
2021/01/23 10:53:25;;;;;;;9.23;7.40;;;;;;;4.17;72.75;98913.09;5044358;28;20229;-80
2021/01/23 10:55:51;;;;;;;8.67;6.57;;;;;;;4.22;72.31;98913.66;5046772;28;20590;-79
2021/01/23 10:58:17;;;;;;;8.07;6.00;;;;;;;4.28;72.25;98915.06;5050425;28;20289;-79
2021/01/23 11:00:43;;;;;;;8.77;6.03;;;;;;;4.30;72.46;98916.63;5043603;28;20230;-79
2021/01/23 11:03:09;;;;;;;8.30;6.30;;;;;;;4.35;71.83;98908.41;5043834;28;20201;-79
2021/01/23 11:05:36;;;;;;;8.67;6.53;;;;;;;4.38;71.39;98905.59;5049437;28;20882;-79
2021/01/23 11:08:03;;;;;;;8.00;5.93;;;;;;;4.41;71.47;98895.69;5053458;28;20209;-80
2021/01/23 11:10:30;;;;;;;9.77;6.67;;;;;;;4.43;70.83;98899.06;5052329;28;20202;-80
2021/01/23 11:12:56;;;;;;;10.00;6.00;;;;;;;4.45;71.12;98894.53;5056973;28;20247;-80
2021/01/23 11:15:22;;;;;;;9.97;5.73;;;;;;;4.49;70.44;98900.44;5052189;28;20651;-80
2021/01/23 11:17:48;;;;;;;8.97;5.57;;;;;;;4.50;70.78;98888.94;5050884;28;20267;-79
2021/01/23 11:20:14;;;;;;;9.07;5.50;;;;;;;4.53;69.91;98889.59;5051118;28;20289;-80
2021/01/23 11:22:41;;;;;;;9.57;5.87;;;;;;;4.56;70.09;98883.28;5044525;28;20552;-78
2021/01/23 11:25:09;;;;;;;10.30;5.43;;;;;;;4.59;69.47;98885.72;5048552;28;20561;-79
2021/01/23 11:27:40;;;;;;;7.77;6.13;;;;;;;4.62;69.73;98880.25;5045474;28;20221;-78
2021/01/23 11:30:08;;;;;;;9.87;6.57;;;;;;;4.68;69.44;98879.81;5042125;28;20206;-80